Tompo, Russia
Current Conditions -  °F | °C
As of 2:30 PM on Wednesday 22 Oct 2014 (Local Time) from UEEE Reporting Station
Clear Clear  
Wind Chill:   Ceiling: Unl
Heat Index: 10°   Visibility: 6mi
Dew Point:   Wind: 4mph
Humidity: 79%   Direction: 20°NNE
Pressure: 29.41"   Gusts: NA
Location:  63.91°N, 135.86°E
Report Text: UEEE 220430Z 02002MPS CAVOK M12/M15 Q0996 NOSIG RMK QFE73923490237
Loading
Personal Weather Stations






























Interactive Weather Map
Tropical Storm Tracking
New forecast layout! Learn more

10-Day Weather Forecast

Advertisements
Track Severe Weather on mobile